Time;durP1;ratioP1;P1;durP2;ratioP2;P2;SDS_P1;SDS_P2;PMS_P1;PMS_P2;Temp;Humidity;BMP_temperature;BMP_pressure;BME280_temperature;BME280_humidity;BME280_pressure;Samples;Min_cycle;Max_cycle;Signal;HPM_P1;HPM_P2
2023/05/14 00:00:23;;;;;;;7.70;6.50;;;11.10;67.20;;;;;;5011213;28;20479;-54
2023/05/14 00:02:49;;;;;;;8.70;7.47;;;11.20;63.30;;;;;;5011574;28;21088;-56
2023/05/14 00:05:16;;;;;;;7.10;6.40;;;11.20;62.50;;;;;;5011245;28;20522;-55
2023/05/14 00:07:44;;;;;;;7.20;6.37;;;11.20;60.60;;;;;;5008346;28;20554;-54
2023/05/14 00:10:10;;;;;;;11.07;6.43;;;11.20;61.30;;;;;;5009707;28;20475;-55
2023/05/14 00:12:37;;;;;;;13.33;6.20;;;11.30;59.20;;;;;;5008508;28;20483;-54
2023/05/14 00:15:04;;;;;;;7.90;5.43;;;11.20;55.40;;;;;;5004821;28;20497;-55
2023/05/14 00:17:31;;;;;;;7.07;6.33;;;11.30;55.10;;;;;;5009913;28;20463;-54
2023/05/14 00:19:58;;;;;;;8.97;6.07;;;11.30;54.30;;;;;;5014330;28;20884;-54
2023/05/14 00:22:24;;;;;;;7.70;5.97;;;11.30;48.30;;;;;;5011051;28;20483;-55
2023/05/14 00:24:52;;;;;;;6.77;5.40;;;11.30;49.60;;;;;;5015730;28;20491;-55
2023/05/14 00:27:19;;;;;;;9.63;6.37;;;11.30;50.00;;;;;;5017006;28;20531;-55
2023/05/14 00:29:45;;;;;;;13.60;6.10;;;11.30;47.60;;;;;;5017538;28;20547;-54
2023/05/14 00:32:12;;;;;;;7.20;6.50;;;11.30;47.10;;;;;;5016593;28;20562;-54
2023/05/14 00:34:38;;;;;;;10.53;6.50;;;11.20;46.60;;;;;;5016287;28;20514;-55
2023/05/14 00:37:05;;;;;;;7.53;6.63;;;11.20;42.00;;;;;;5010776;28;20916;-55
2023/05/14 00:39:32;;;;;;;7.10;6.40;;;11.20;42.00;;;;;;5007465;28;20503;-54
2023/05/14 00:42:00;;;;;;;6.30;5.80;;;11.30;41.40;;;;;;5011981;28;20586;-54
2023/05/14 00:44:26;;;;;;;6.40;5.80;;;11.30;42.10;;;;;;5013381;28;20468;-54
2023/05/14 00:46:53;;;;;;;13.60;6.00;;;11.30;43.00;;;;;;5010938;28;20494;-54
2023/05/14 00:49:20;;;;;;;16.60;6.33;;;11.30;41.70;;;;;;5011943;28;20486;-55
2023/05/14 00:51:47;;;;;;;11.40;6.87;;;11.30;42.10;;;;;;5015094;28;20498;-55
2023/05/14 00:54:14;;;;;;;9.20;6.50;;;11.20;40.80;;;;;;5010486;28;21048;-55
2023/05/14 00:56:40;;;;;;;7.03;6.23;;;11.20;42.50;;;;;;5012510;28;20467;-56
2023/05/14 00:59:08;;;;;;;11.30;7.13;;;11.20;39.30;;;;;;5008386;28;20546;-54
2023/05/14 01:01:35;;;;;;;6.80;6.13;;;11.10;38.80;;;;;;5010837;28;20550;-55
2023/05/14 01:04:01;;;;;;;6.90;6.30;;;11.00;36.60;;;;;;5011443;28;20574;-55
2023/05/14 01:06:35;;;;;;;7.37;6.70;;;11.00;35.90;;;;;;5014365;28;20509;-55
2023/05/14 01:09:08;;;;;;;7.90;6.00;;;10.90;34.20;;;;;;5012612;28;20518;-54
2023/05/14 01:11:42;;;;;;;6.80;6.20;;;10.90;31.60;;;;;;5012575;28;20499;-54
2023/05/14 01:14:21;;;;;;;6.60;6.00;;;10.80;84.20;;;;;;5003341;28;20454;-54
2023/05/14 01:16:50;;;;;;;8.33;7.33;;;10.90;97.40;;;;;;5014231;28;20471;-54
2023/05/14 01:19:33;;;;;;;6.83;6.13;;;10.80;20.80;;;;;;5021988;28;20495;-54
2023/05/14 01:22:01;;;;;;;6.93;5.70;;;10.80;90.20;;;;;;5012076;28;21061;-54
2023/05/14 01:24:27;;;;;;;13.47;7.83;;;10.70;84.20;;;;;;5010323;28;22327;-55
2023/05/14 01:26:58;;;;;;;10.33;7.10;;;10.60;94.10;;;;;;5013148;28;20502;-54
2023/05/14 01:29:28;;;;;;;7.20;6.57;;;10.60;99.90;;;;;;5018444;28;20506;-55
2023/05/14 01:31:57;;;;;;;8.47;7.50;;;10.50;99.90;;;;;;5010530;28;20688;-54
2023/05/14 01:34:25;;;;;;;8.07;6.27;;;10.40;99.90;;;;;;5011936;28;20483;-55
2023/05/14 01:36:53;;;;;;;6.70;6.00;;;10.40;99.90;;;;;;5013034;28;21043;-55
2023/05/14 01:39:23;;;;;;;10.20;6.80;;;10.30;99.90;;;;;;5014825;28;20549;-55
2023/05/14 01:41:51;;;;;;;7.70;6.50;;;10.20;99.90;;;;;;5011876;28;21051;-55
2023/05/14 01:44:18;;;;;;;7.83;6.87;;;10.20;99.90;;;;;;5015429;28;20566;-55
2023/05/14 01:46:45;;;;;;;9.33;6.57;;;10.30;99.90;;;;;;5013049;28;20498;-53
2023/05/14 01:49:11;;;;;;;9.00;7.27;;;10.20;99.90;;;;;;5014245;28;20455;-54
2023/05/14 01:51:38;;;;;;;6.83;6.33;;;10.10;99.90;;;;;;5012901;28;21036;-54
2023/05/14 01:54:05;;;;;;;8.30;6.30;;;10.10;99.90;;;;;;5009656;28;20942;-55
2023/05/14 01:56:32;;;;;;;7.63;6.93;;;10.00;99.90;;;;;;5013303;28;20473;-54
2023/05/14 01:58:59;;;;;;;12.93;6.87;;;10.00;99.90;;;;;;5010813;28;20495;-54
2023/05/14 02:01:26;;;;;;;8.30;7.20;;;9.90;99.90;;;;;;5011941;28;20466;-56
2023/05/14 02:03:52;;;;;;;12.43;6.80;;;9.80;99.90;;;;;;5012540;28;20585;-54
2023/05/14 02:06:19;;;;;;;9.00;7.03;;;9.80;99.90;;;;;;5015912;28;20462;-54
2023/05/14 02:08:45;;;;;;;11.63;7.07;;;9.70;99.90;;;;;;5015439;28;20515;-54
2023/05/14 02:11:12;;;;;;;7.00;6.40;;;9.70;99.90;;;;;;5013465;28;20460;-54
2023/05/14 02:13:40;;;;;;;7.10;6.37;;;9.80;99.90;;;;;;5015614;28;20503;-55
2023/05/14 02:16:07;;;;;;;8.77;6.97;;;9.90;99.90;;;;;;5010980;28;20463;-54
2023/05/14 02:18:33;;;;;;;9.83;6.37;;;9.80;99.90;;;;;;5010956;28;20532;-55
2023/05/14 02:21:00;;;;;;;13.20;6.27;;;9.80;99.90;;;;;;5017070;28;20498;-55
2023/05/14 02:23:26;;;;;;;8.03;6.77;;;9.70;99.90;;;;;;5011771;28;20513;-56
2023/05/14 02:25:53;;;;;;;7.70;6.00;;;9.70;99.90;;;;;;5010096;28;20894;-54
2023/05/14 02:28:19;;;;;;;12.00;7.20;;;9.60;99.90;;;;;;5011192;28;21165;-56
2023/05/14 02:30:47;;;;;;;6.57;5.97;;;9.60;99.90;;;;;;5009627;28;20880;-55
2023/05/14 02:33:14;;;;;;;8.90;6.80;;;9.60;99.90;;;;;;5010587;28;20583;-54
2023/05/14 02:35:40;;;;;;;7.70;6.10;;;9.50;99.90;;;;;;5009365;28;20565;-54
2023/05/14 02:38:07;;;;;;;7.37;6.67;;;9.60;99.90;;;;;;5011022;28;20653;-54
2023/05/14 02:40:33;;;;;;;8.43;6.77;;;9.60;99.90;;;;;;5011570;28;20551;-55
2023/05/14 02:43:00;;;;;;;20.97;7.20;;;9.60;99.90;;;;;;5004359;28;20575;-55
2023/05/14 02:45:26;;;;;;;6.83;5.90;;;9.70;99.90;;;;;;5011603;28;20496;-55
2023/05/14 02:47:54;;;;;;;7.03;6.10;;;9.70;99.90;;;;;;5018686;28;20530;-55
2023/05/14 02:50:21;;;;;;;6.37;5.87;;;9.70;99.90;;;;;;5013073;28;20501;-54
2023/05/14 02:52:47;;;;;;;7.17;6.57;;;9.70;99.90;;;;;;5012680;28;20925;-54
2023/05/14 02:55:14;;;;;;;8.87;6.63;;;9.80;99.90;;;;;;5009494;28;20491;-55
2023/05/14 02:57:40;;;;;;;6.37;5.80;;;9.80;99.90;;;;;;5017054;28;20486;-54
2023/05/14 03:00:08;;;;;;;7.77;5.90;;;9.80;99.90;;;;;;5012786;28;20491;-55
2023/05/14 03:02:35;;;;;;;9.87;6.60;;;9.90;99.90;;;;;;5018443;28;20483;-55
2023/05/14 03:05:03;;;;;;;11.77;6.50;;;9.90;99.90;;;;;;5008878;28;20989;-55
2023/05/14 03:07:30;;;;;;;7.27;6.20;;;10.00;99.90;;;;;;5016454;28;20562;-55
2023/05/14 03:09:59;;;;;;;8.07;6.03;;;10.10;99.90;;;;;;5010335;28;20503;-54
2023/05/14 03:12:25;;;;;;;7.73;6.53;;;10.10;99.90;;;;;;5012082;28;21060;-55
2023/05/14 03:14:52;;;;;;;7.57;6.87;;;10.20;99.90;;;;;;5016166;28;20538;-56
2023/05/14 03:17:18;;;;;;;7.03;6.50;;;10.20;99.90;;;;;;5014287;28;20496;-54
2023/05/14 03:19:45;;;;;;;6.57;6.07;;;10.30;99.90;;;;;;5009255;28;20491;-54
2023/05/14 03:22:13;;;;;;;6.40;5.90;;;10.30;99.90;;;;;;5014126;28;20529;-54
2023/05/14 03:24:40;;;;;;;8.73;6.80;;;10.20;99.90;;;;;;5006693;28;20573;-55
2023/05/14 03:27:06;;;;;;;6.67;6.10;;;10.30;99.90;;;;;;5011854;28;20499;-54
2023/05/14 03:29:33;;;;;;;7.67;6.50;;;10.30;99.90;;;;;;5009473;28;20496;-55
2023/05/14 03:31:59;;;;;;;6.23;5.67;;;10.30;99.90;;;;;;5017521;28;21005;-55
2023/05/14 03:34:26;;;;;;;11.83;6.37;;;10.30;99.90;;;;;;5009401;28;20913;-55
2023/05/14 03:36:52;;;;;;;9.50;6.17;;;10.40;99.90;;;;;;5012573;28;20488;-55
2023/05/14 03:39:20;;;;;;;6.73;6.10;;;10.40;99.90;;;;;;5009946;28;20561;-54
2023/05/14 03:41:47;;;;;;;7.93;5.80;;;10.40;99.90;;;;;;5009010;28;21033;-54
2023/05/14 03:44:14;;;;;;;7.63;6.73;;;10.50;95.00;;;;;;5008267;28;20514;-54
2023/05/14 03:46:41;;;;;;;6.97;6.27;;;10.60;27.10;;;;;;5017013;28;21013;-54
2023/05/14 03:49:07;;;;;;;6.53;5.87;;;10.70;41.20;;;;;;5014534;28;20467;-54
2023/05/14 03:51:34;;;;;;;7.50;6.07;;;10.70;44.50;;;;;;5016667;28;20548;-55
2023/05/14 03:54:01;;;;;;;8.93;5.87;;;10.80;48.10;;;;;;5034967;23;20583;-52
2023/05/14 03:56:28;;;;;;;7.93;5.73;;;10.90;49.10;;;;;;5030754;28;21003;-53
2023/05/14 03:58:55;;;;;;;8.40;6.33;;;10.90;54.20;;;;;;5032868;28;20821;-51
2023/05/14 04:01:22;;;;;;;6.70;5.80;;;11.00;56.50;;;;;;5035616;28;20494;-53
2023/05/14 04:03:48;;;;;;;6.03;5.50;;;11.00;60.70;;;;;;5027559;28;20490;-53
2023/05/14 04:06:15;;;;;;;11.03;5.47;;;11.10;55.90;;;;;;5032580;28;20497;-53
2023/05/14 04:08:41;;;;;;;6.73;5.80;;;11.10;54.00;;;;;;5037370;28;20465;-54
2023/05/14 04:11:08;;;;;;;6.73;5.50;;;11.20;56.80;;;;;;5043323;28;20496;-53
2023/05/14 04:13:36;;;;;;;7.47;5.30;;;11.20;61.40;;;;;;5035639;28;20510;-53
2023/05/14 04:16:02;;;;;;;5.97;5.57;;;11.20;68.90;;;;;;5036183;28;20466;-53
2023/05/14 04:18:29;;;;;;;9.57;5.33;;;11.30;63.70;;;;;;5034351;28;20461;-51
2023/05/14 04:20:56;;;;;;;6.53;5.70;;;11.40;64.60;;;;;;5031614;28;20458;-50
2023/05/14 04:23:22;;;;;;;7.00;5.43;;;11.50;67.60;;;;;;5039574;28;20521;-51
2023/05/14 04:25:49;;;;;;;7.40;5.77;;;11.60;69.80;;;;;;5034451;28;20483;-52
2023/05/14 04:28:15;;;;;;;5.63;5.23;;;11.70;74.90;;;;;;5039830;28;20599;-53
2023/05/14 04:30:44;;;;;;;5.43;4.53;;;11.70;77.80;;;;;;5030179;28;20519;-52
2023/05/14 04:33:11;;;;;;;8.90;5.50;;;11.80;75.00;;;;;;5037868;28;20478;-52
2023/05/14 04:35:38;;;;;;;6.20;5.30;;;11.90;80.00;;;;;;5031587;28;20532;-52
2023/05/14 04:38:04;;;;;;;6.90;6.00;;;12.00;76.20;;;;;;5030835;28;20497;-52
2023/05/14 04:40:31;;;;;;;6.83;5.33;;;12.10;79.10;;;;;;5039357;28;20947;-52
2023/05/14 04:42:58;;;;;;;5.77;5.27;;;12.20;81.00;;;;;;5027861;28;20968;-51
2023/05/14 04:45:25;;;;;;;7.80;6.43;;;12.20;80.70;;;;;;5026899;28;20478;-52
2023/05/14 04:47:53;;;;;;;11.87;5.50;;;12.30;79.50;;;;;;5037114;28;20470;-52
2023/05/14 04:50:20;;;;;;;8.67;5.37;;;12.40;78.00;;;;;;5038166;28;20458;-53
2023/05/14 04:52:46;;;;;;;5.00;4.60;;;12.50;80.10;;;;;;5029648;28;20500;-53
2023/05/14 04:55:13;;;;;;;10.67;6.07;;;12.60;81.10;;;;;;5028284;28;20454;-51
2023/05/14 04:57:39;;;;;;;8.07;5.20;;;12.70;86.50;;;;;;5021152;28;20491;-51
2023/05/14 05:00:08;;;;;;;8.83;5.23;;;12.90;99.90;;;;;;5022419;28;20519;-53
2023/05/14 05:02:35;;;;;;;8.87;5.50;;;13.00;99.90;;;;;;5032963;28;20488;-53
2023/05/14 05:05:03;;;;;;;5.37;4.87;;;13.20;99.90;;;;;;5032349;28;20573;-52
2023/05/14 05:07:30;;;;;;;6.30;5.70;;;13.30;99.90;;;;;;5030477;28;20845;-52
2023/05/14 05:09:56;;;;;;;5.20;4.50;;;13.40;99.90;;;;;;5032768;28;20964;-54
2023/05/14 05:12:23;;;;;;;10.57;5.20;;;13.50;99.90;;;;;;5035724;28;20511;-53
2023/05/14 05:14:49;;;;;;;5.63;4.67;;;13.50;99.90;;;;;;5044699;28;20431;-53
2023/05/14 05:17:16;;;;;;;6.77;5.40;;;13.70;99.90;;;;;;5038950;28;20478;-53
2023/05/14 05:19:43;;;;;;;11.10;5.40;;;13.80;99.90;;;;;;5038048;28;20493;-51
2023/05/14 05:22:10;;;;;;;8.13;4.90;;;13.90;99.90;;;;;;5035488;28;20961;-51
2023/05/14 05:24:37;;;;;;;6.47;4.60;;;14.00;99.90;;;;;;5042417;28;20569;-51
2023/05/14 05:27:05;;;;;;;4.70;4.23;;;14.10;25.80;;;;;;5038277;28;20495;-51
2023/05/14 05:29:31;;;;;;;10.17;5.20;;;14.20;42.40;;;;;;5033577;28;20451;-51
2023/05/14 05:31:58;;;;;;;13.20;5.63;;;14.30;66.40;;;;;;5043783;28;20516;-52
2023/05/14 05:34:24;;;;;;;5.63;4.33;;;14.30;68.80;;;;;;5031557;28;20518;-53
2023/05/14 05:36:51;;;;;;;7.80;4.10;;;14.40;83.70;;;;;;5032475;28;20493;-53
2023/05/14 05:39:19;;;;;;;6.80;4.20;;;14.50;99.90;;;;;;5034455;28;20473;-53
2023/05/14 05:41:46;;;;;;;9.63;4.33;;;14.60;99.90;;;;;;5032851;28;20459;-53
2023/05/14 05:44:12;;;;;;;6.17;3.93;;;14.70;99.90;;;;;;5040933;28;20519;-52
2023/05/14 05:46:39;;;;;;;15.40;4.70;;;14.80;99.90;;;;;;5043197;28;20495;-51
2023/05/14 05:49:05;;;;;;;12.53;4.53;;;14.90;99.90;;;;;;5033182;28;20482;-51
2023/05/14 05:51:32;;;;;;;5.90;4.73;;;14.90;99.90;;;;;;5036548;28;20517;-52
2023/05/14 05:53:58;;;;;;;9.33;4.63;;;14.90;99.90;;;;;;5033771;28;20482;-51
2023/05/14 05:56:26;;;;;;;9.50;4.40;;;15.10;99.90;;;;;;5038708;28;20486;-50
2023/05/14 05:58:53;;;;;;;5.40;4.67;;;15.10;99.90;;;;;;5033664;28;20494;-52
2023/05/14 06:01:19;;;;;;;4.43;3.63;;;15.20;99.90;;;;;;5031220;28;20463;-52
2023/05/14 06:03:46;;;;;;;10.43;4.93;;;15.30;99.90;;;;;;5030932;28;20522;-52
2023/05/14 06:06:12;;;;;;;19.93;4.50;;;15.40;99.90;;;;;;5037096;28;20552;-53
2023/05/14 06:08:39;;;;;;;5.90;3.57;;;15.50;99.90;;;;;;5040989;28;20527;-52
2023/05/14 06:11:05;;;;;;;4.70;4.20;;;15.60;99.90;;;;;;5030925;28;20537;-53
2023/05/14 06:13:33;;;;;;;4.50;4.10;;;15.70;99.90;;;;;;5032299;28;20530;-51
2023/05/14 06:16:00;;;;;;;4.17;3.87;;;15.80;99.90;;;;;;5030030;28;20490;-51
2023/05/14 06:18:26;;;;;;;6.63;4.13;;;15.80;99.90;;;;;;5032422;28;20509;-50
2023/05/14 06:20:55;;;;;;;5.90;4.40;;;15.80;99.90;;;;;;5027739;28;20541;-52
2023/05/14 06:23:22;;;;;;;9.37;3.90;;;15.90;99.90;;;;;;5030895;28;20485;-52
2023/05/14 06:25:49;;;;;;;3.87;3.60;;;15.90;99.90;;;;;;5032629;28;20580;-52
2023/05/14 06:28:16;;;;;;;6.07;4.23;;;16.00;99.90;;;;;;5038431;28;20461;-50
2023/05/14 06:30:44;;;;;;;7.70;3.90;;;16.10;99.90;;;;;;5038207;28;20486;-51
2023/05/14 06:33:12;;;;;;;8.90;3.97;;;16.20;99.90;;;;;;5032660;28;20875;-51
2023/05/14 06:35:38;;;;;;;12.53;3.83;;;16.20;99.90;;;;;;5030514;28;20461;-50
2023/05/14 06:38:05;;;;;;;9.10;4.27;;;16.30;99.90;;;;;;5032914;28;20482;-51
2023/05/14 06:40:32;;;;;;;10.77;4.17;;;16.20;99.90;;;;;;5033013;28;20944;-52
2023/05/14 06:42:58;;;;;;;4.77;3.77;;;16.30;99.90;;;;;;5032088;28;20539;-51
2023/05/14 06:45:25;;;;;;;4.10;3.60;;;16.30;99.90;;;;;;5035029;28;21181;-51
2023/05/14 06:47:53;;;;;;;7.13;4.07;;;16.30;99.90;;;;;;5041488;28;20490;-51
2023/05/14 06:50:19;;;;;;;4.43;4.00;;;16.20;99.90;;;;;;5029373;28;20506;-51
2023/05/14 06:52:46;;;;;;;10.80;5.10;;;16.20;99.90;;;;;;5026435;28;20482;-51
2023/05/14 06:55:12;;;;;;;5.07;3.40;;;16.20;99.90;;;;;;5029673;28;20917;-51
2023/05/14 06:57:39;;;;;;;6.77;4.50;;;16.20;99.90;;;;;;5034205;28;20971;-53
2023/05/14 07:00:07;;;;;;;5.47;4.17;;;16.10;99.90;;;;;;5030609;28;20483;-51
2023/05/14 07:02:34;;;;;;;6.47;3.33;;;16.10;99.90;;;;;;5026489;28;21212;-51
2023/05/14 07:05:02;;;;;;;5.20;4.17;;;16.10;99.90;;;;;;5029338;28;20486;-53
2023/05/14 07:07:28;;;;;;;14.20;4.70;;;16.20;99.90;;;;;;5026264;28;20508;-52
2023/05/14 07:09:55;;;;;;;4.80;3.63;;;16.20;99.90;;;;;;5026272;28;20973;-51
2023/05/14 07:12:21;;;;;;;8.00;4.30;;;16.30;99.90;;;;;;5029192;28;20475;-51
2023/05/14 07:14:48;;;;;;;9.77;4.33;;;16.30;99.90;;;;;;5026716;28;20568;-51
2023/05/14 07:17:15;;;;;;;4.53;4.20;;;16.30;99.90;;;;;;5031128;28;20903;-52
2023/05/14 07:19:41;;;;;;;10.83;4.20;;;16.30;99.90;;;;;;5027202;28;20552;-52
2023/05/14 07:22:09;;;;;;;5.33;4.30;;;16.40;99.90;;;;;;5024583;28;20497;-52
2023/05/14 07:24:36;;;;;;;5.43;4.90;;;16.30;99.90;;;;;;5027757;28;20515;-50
2023/05/14 07:27:03;;;;;;;13.83;4.50;;;16.40;99.90;;;;;;5031335;28;20477;-51
2023/05/14 07:29:30;;;;;;;9.37;4.20;;;16.50;99.90;;;;;;5028353;28;20494;-53
2023/05/14 07:31:56;;;;;;;8.20;4.47;;;16.50;99.90;;;;;;5031185;28;20829;-53
2023/05/14 07:34:23;;;;;;;6.33;4.00;;;16.50;99.90;;;;;;5026263;28;20528;-52
2023/05/14 07:36:50;;;;;;;6.73;4.63;;;16.50;99.90;;;;;;5029444;28;20521;-52
2023/05/14 07:39:18;;;;;;;12.90;4.50;;;16.50;99.90;;;;;;5026891;28;20902;-52
2023/05/14 07:41:44;;;;;;;4.57;4.07;;;16.50;99.90;;;;;;5028097;28;20469;-51
2023/05/14 07:44:11;;;;;;;6.50;4.27;;;16.60;99.90;;;;;;5021486;28;20518;-51
2023/05/14 07:46:37;;;;;;;12.33;4.03;;;16.60;99.90;;;;;;5023934;28;20452;-52
2023/05/14 07:49:04;;;;;;;13.73;4.40;;;16.60;99.90;;;;;;5027790;28;20895;-52
2023/05/14 07:51:32;;;;;;;6.97;3.77;;;16.60;99.90;;;;;;5028862;28;20497;-51
2023/05/14 07:53:59;;;;;;;8.53;3.87;;;16.50;99.90;;;;;;5023319;28;20565;-52
2023/05/14 07:56:27;;;;;;;9.77;4.70;;;16.60;99.90;;;;;;5023899;28;20528;-52
2023/05/14 07:58:53;;;;;;;4.10;3.80;;;16.70;99.90;;;;;;5030682;28;20462;-51
2023/05/14 08:01:20;;;;;;;10.50;4.33;;;16.80;99.90;;;;;;5026361;28;20893;-51
2023/05/14 08:03:47;;;;;;;4.93;3.70;;;16.90;99.90;;;;;;5024479;28;21086;-51
2023/05/14 08:06:13;;;;;;;8.97;4.63;;;17.00;99.90;;;;;;5025737;28;20514;-52
2023/05/14 08:08:40;;;;;;;4.17;3.27;;;17.00;99.90;;;;;;5024469;28;20494;-52
2023/05/14 08:11:06;;;;;;;7.07;4.43;;;16.90;99.90;;;;;;5029208;28;20486;-52
2023/05/14 08:13:34;;;;;;;9.53;4.67;;;16.90;99.90;;;;;;5018962;28;21051;-52
2023/05/14 08:16:01;;;;;;;12.93;3.87;;;16.90;99.90;;;;;;5022677;28;20487;-52
2023/05/14 08:18:28;;;;;;;4.50;3.97;;;16.90;99.90;;;;;;5026193;28;20493;-52
2023/05/14 08:20:54;;;;;;;6.40;3.77;;;17.00;99.90;;;;;;5027118;28;20501;-52
2023/05/14 08:23:22;;;;;;;8.43;3.80;;;17.00;99.90;;;;;;5024296;28;20486;-52
2023/05/14 08:25:48;;;;;;;4.10;3.43;;;17.10;99.90;;;;;;5021684;28;20495;-52
2023/05/14 08:28:15;;;;;;;5.73;3.70;;;17.10;99.90;;;;;;5029030;28;20455;-52
2023/05/14 08:30:43;;;;;;;8.87;5.47;;;17.20;99.90;;;;;;5026188;28;20491;-52
2023/05/14 08:33:10;;;;;;;3.77;3.07;;;17.10;99.90;;;;;;5025955;28;20564;-52
2023/05/14 08:35:36;;;;;;;10.00;3.87;;;17.20;99.90;;;;;;5022681;28;20466;-52
2023/05/14 08:38:03;;;;;;;10.70;3.80;;;17.30;99.90;;;;;;5031025;28;20455;-52
2023/05/14 08:40:30;;;;;;;5.27;3.60;;;17.40;99.90;;;;;;5033804;28;20505;-51
2023/05/14 08:42:57;;;;;;;8.87;3.70;;;17.40;99.90;;;;;;5023564;28;20514;-51
2023/05/14 08:45:30;;;;;;;11.50;3.90;;;17.60;99.90;;;;;;5031026;28;20516;-50
2023/05/14 08:47:59;;;;;;;10.63;4.50;;;17.80;99.90;;;;;;5029356;28;20451;-52
2023/05/14 08:50:28;;;;;;;12.33;4.10;;;17.90;99.90;;;;;;5029376;28;20486;-51
2023/05/14 08:52:55;;;;;;;4.83;3.80;;;18.10;99.90;;;;;;5024311;28;20489;-52
2023/05/14 08:55:22;;;;;;;13.00;4.47;;;18.20;99.90;;;;;;5036951;28;20454;-52
2023/05/14 08:57:49;;;;;;;8.33;3.73;;;18.40;99.90;;;;;;5028289;28;20545;-52
2023/05/14 09:00:15;;;;;;;4.73;3.73;;;18.30;99.90;;;;;;5021255;28;22174;-52
2023/05/14 09:02:44;;;;;;;13.70;3.77;;;18.40;99.90;;;;;;5026558;28;20486;-53
2023/05/14 09:05:12;;;;;;;8.63;3.60;;;18.50;99.90;;;;;;5032148;28;21025;-52
2023/05/14 09:07:39;;;;;;;6.53;3.43;;;18.60;99.90;;;;;;5026926;28;20515;-51
2023/05/14 09:10:07;;;;;;;4.23;3.23;;;18.80;99.90;;;;;;5034209;28;20455;-52
2023/05/14 09:12:34;;;;;;;3.50;3.20;;;18.90;99.90;;;;;;5028988;28;20501;-52
2023/05/14 09:15:00;;;;;;;4.97;3.40;;;19.00;99.90;;;;;;5030002;28;21279;-52
2023/05/14 09:17:27;;;;;;;14.97;3.30;;;18.80;99.90;;;;;;5028469;28;20490;-51
2023/05/14 09:19:54;;;;;;;4.57;2.70;;;18.80;99.90;;;;;;5036574;28;20848;-52
2023/05/14 09:22:22;;;;;;;3.93;3.00;;;19.00;99.90;;;;;;5038950;28;20510;-51
2023/05/14 09:25:03;;;;;;;3.37;3.03;;;19.20;99.90;;;;;;5038845;28;20505;-52
2023/05/14 09:27:31;;;;;;;3.60;3.30;;;19.40;99.90;;;;;;5028498;28;20471;-51
2023/05/14 09:30:05;;;;;;;6.00;3.60;;;19.60;99.90;;;;;;5032616;28;20446;-51
2023/05/14 09:32:36;;;;;;;7.27;3.40;;;19.60;99.90;;;;;;5034881;28;20497;-50
2023/05/14 09:35:10;;;;;;;5.30;3.87;;;19.80;99.90;;;;;;5040876;28;20445;-52
2023/05/14 09:37:41;;;;;;;6.73;3.33;;;20.00;99.90;;;;;;5034098;28;21038;-52
2023/05/14 09:40:08;;;;;;;2.80;2.60;;;20.00;99.90;;;;;;5031871;28;20466;-51
2023/05/14 09:42:35;;;;;;;5.63;3.47;;;20.20;99.90;;;;;;5040911;28;20504;-53
2023/05/14 09:45:03;;;;;;;3.53;3.00;;;20.40;99.90;;;;;;5027924;28;20504;-51
2023/05/14 09:47:30;;;;;;;3.80;2.97;;;20.70;99.90;;;;;;5033951;28;20459;-52
2023/05/14 09:49:56;;;;;;;3.90;3.00;;;20.80;99.90;;;;;;5033018;28;20486;-52
2023/05/14 09:52:24;;;;;;;6.53;3.10;;;20.80;99.90;;;;;;5033718;28;20506;-51
2023/05/14 09:54:52;;;;;;;3.43;2.70;;;20.90;99.90;;;;;;5029101;23;20908;-52
2023/05/14 09:57:19;;;;;;;10.57;2.40;;;21.30;99.90;;;;;;5011678;28;20849;-51
2023/05/14 09:59:46;;;;;;;16.57;2.80;;;21.70;99.90;;;;;;5011928;28;20512;-53
2023/05/14 10:02:21;;;;;;;5.37;2.73;;;22.10;99.90;;;;;;5007653;28;20452;-52
2023/05/14 10:04:48;;;;;;;7.50;3.27;;;21.60;99.90;;;;;;5019475;28;20519;-53
2023/05/14 10:07:19;;;;;;;11.43;2.77;;;21.30;99.90;;;;;;5016017;28;20466;-52
2023/05/14 10:09:46;;;;;;;5.40;2.93;;;21.90;99.90;;;;;;5010961;28;20829;-53
2023/05/14 10:12:21;;;;;;;4.60;3.20;;;22.50;99.90;;;;;;5013218;28;20484;-52
2023/05/14 10:14:52;;;;;;;4.90;2.37;;;22.90;99.90;;;;;;5010676;28;20570;-52
2023/05/14 10:17:21;;;;;;;10.40;2.70;;;23.40;99.90;;;;;;5014982;28;20463;-53
2023/05/14 10:19:52;;;;;;;3.27;2.50;;;23.60;99.90;;;;;;5009409;28;20468;-53
2023/05/14 10:22:22;;;;;;;3.70;2.77;;;23.80;99.90;;;;;;5007311;28;20991;-52
2023/05/14 10:24:51;;;;;;;4.13;2.60;;;23.60;99.90;;;;;;5003618;28;20503;-52
2023/05/14 10:27:20;;;;;;;7.97;2.93;;;24.10;99.90;;;;;;5010819;28;20463;-52
2023/05/14 10:29:53;;;;;;;5.00;3.30;;;24.60;99.90;;;;;;5002055;28;20508;-52
2023/05/14 10:32:20;;;;;;;4.07;3.10;;;24.60;99.90;;;;;;5009088;28;20464;-52
2023/05/14 10:34:47;;;;;;;8.83;2.77;;;25.30;99.90;;;;;;5012055;28;20538;-51
2023/05/14 10:37:15;;;;;;;4.37;3.03;;;24.70;99.90;;;;;;5011077;28;20463;-52
2023/05/14 10:39:43;;;;;;;13.53;2.97;;;24.30;99.90;;;;;;5009115;28;21011;-53
2023/05/14 10:42:12;;;;;;;9.60;3.20;;;23.80;99.90;;;;;;5010122;28;20546;-52
2023/05/14 10:44:47;;;;;;;8.17;2.60;;;23.00;99.90;;;;;;5005537;28;20496;-52
2023/05/14 10:47:14;;;;;;;3.17;2.70;;;22.10;99.90;;;;;;5005122;28;20483;-53
2023/05/14 10:49:42;;;;;;;11.50;3.90;;;21.70;99.90;;;;;;5014441;28;20554;-53
2023/05/14 10:52:09;;;;;;;4.40;3.40;;;21.70;99.90;;;;;;5010967;28;20529;-52
2023/05/14 10:54:36;;;;;;;9.63;3.20;;;21.50;99.90;;;;;;5020846;28;20847;-52
2023/05/14 10:57:03;;;;;;;3.53;3.23;;;21.50;99.90;;;;;;5013197;28;21334;-51
2023/05/14 10:59:29;;;;;;;3.23;2.93;;;21.40;99.90;;;;;;5005051;28;20488;-52
2023/05/14 11:01:58;;;;;;;4.30;3.17;;;21.20;99.90;;;;;;5009953;28;20500;-52
2023/05/14 11:04:25;;;;;;;2.77;2.57;;;21.20;99.90;;;;;;5006091;28;20516;-54
2023/05/14 11:06:53;;;;;;;6.53;3.40;;;21.10;99.90;;;;;;5015280;28;21004;-53
2023/05/14 11:09:21;;;;;;;3.03;2.83;;;21.10;99.90;;;;;;5027900;28;20463;-51
2023/05/14 11:11:48;;;;;;;6.00;3.60;;;20.90;99.90;;;;;;5013691;28;20478;-53
2023/05/14 11:14:14;;;;;;;3.30;3.00;;;20.90;99.90;;;;;;5010444;28;20507;-53
2023/05/14 11:16:41;;;;;;;5.17;3.03;;;20.80;99.90;;;;;;5009660;28;20484;-54
2023/05/14 11:19:09;;;;;;;3.63;2.90;;;20.80;99.90;;;;;;5012362;28;20468;-55
2023/05/14 11:21:35;;;;;;;5.20;3.50;;;20.70;99.90;;;;;;5007311;28;20672;-54
2023/05/14 11:24:04;;;;;;;3.83;3.27;;;20.60;99.90;;;;;;5014692;28;20495;-52
2023/05/14 11:26:31;;;;;;;7.43;3.00;;;20.50;99.90;;;;;;5014710;28;20553;-52
2023/05/14 11:28:58;;;;;;;4.00;3.00;;;20.50;99.90;;;;;;5023461;28;20495;-51
2023/05/14 11:31:25;;;;;;;5.43;3.23;;;20.40;99.90;;;;;;5008983;28;20981;-52
2023/05/14 11:33:53;;;;;;;8.80;3.13;;;20.40;99.90;;;;;;5006284;28;21084;-51
2023/05/14 11:36:21;;;;;;;6.10;2.97;;;20.40;99.90;;;;;;5012764;28;20444;-52
2023/05/14 11:38:50;;;;;;;3.43;3.23;;;20.40;99.90;;;;;;5028575;28;20481;-54
2023/05/14 11:41:16;;;;;;;4.67;3.03;;;20.30;99.90;;;;;;5012715;28;20969;-52
2023/05/14 11:43:43;;;;;;;5.50;3.00;;;20.50;99.90;;;;;;5013018;28;20503;-52
2023/05/14 11:46:17;;;;;;;4.37;3.47;;;20.50;99.90;;;;;;5022695;28;20472;-52
2023/05/14 11:48:44;;;;;;;4.27;3.87;;;20.60;99.90;;;;;;5031021;28;20975;-53
2023/05/14 11:51:11;;;;;;;6.77;4.00;;;20.70;99.90;;;;;;5027069;28;20451;-54
2023/05/14 11:53:38;;;;;;;4.60;3.77;;;20.90;99.90;;;;;;5025138;28;20502;-54
2023/05/14 11:56:05;;;;;;;14.10;3.33;;;20.90;99.90;;;;;;5011432;28;20484;-53
2023/05/14 11:58:32;;;;;;;5.27;3.47;;;20.80;99.90;;;;;;5004795;28;20499;-53
2023/05/14 12:00:59;;;;;;;3.43;3.13;;;20.80;99.90;;;;;;5012601;28;20482;-55
2023/05/14 12:03:28;;;;;;;4.00;2.97;;;20.90;99.90;;;;;;5012393;28;20538;-57
2023/05/14 12:05:56;;;;;;;3.60;3.30;;;21.00;99.90;;;;;;5013805;28;20572;-55
2023/05/14 12:08:25;;;;;;;4.67;3.60;;;20.90;99.90;;;;;;5031951;28;20944;-54
2023/05/14 12:10:54;;;;;;;14.23;3.67;;;21.00;99.90;;;;;;5031815;28;20475;-56
2023/05/14 12:13:21;;;;;;;4.00;3.60;;;20.90;99.90;;;;;;5025006;28;21081;-56
2023/05/14 12:15:48;;;;;;;5.80;3.30;;;20.90;99.90;;;;;;5012418;28;20549;-55
2023/05/14 12:18:17;;;;;;;3.70;3.40;;;20.70;99.90;;;;;;5011034;28;20500;-56
2023/05/14 12:20:47;;;;;;;2.90;2.70;;;20.60;99.90;;;;;;5021172;28;20989;-54
2023/05/14 12:23:13;;;;;;;14.47;3.57;;;20.50;99.90;;;;;;5020738;28;20533;-60
2023/05/14 12:25:40;;;;;;;3.77;3.47;;;20.20;99.90;;;;;;5012150;28;20483;-55
2023/05/14 12:28:15;;;;;;;2.80;2.60;;;20.10;99.90;;;;;;5014308;28;20514;-55
2023/05/14 12:30:41;;;;;;;7.40;3.10;;;20.10;99.90;;;;;;5011357;28;20842;-55
2023/05/14 12:33:08;;;;;;;5.20;2.93;;;19.90;99.90;;;;;;5011596;28;20518;-55
2023/05/14 12:35:35;;;;;;;18.07;3.33;;;19.80;99.90;;;;;;5010771;28;20517;-52
2023/05/14 12:38:02;;;;;;;5.37;3.50;;;19.70;99.90;;;;;;5015302;28;20446;-52
2023/05/14 12:40:29;;;;;;;6.03;3.47;;;19.60;99.90;;;;;;5007709;28;20507;-52
2023/05/14 12:42:55;;;;;;;5.80;3.60;;;19.50;99.90;;;;;;5019373;28;20554;-51
2023/05/14 12:45:23;;;;;;;6.13;3.90;;;19.40;99.90;;;;;;5003292;28;20535;-52